createdAt,value
2018-07-30T00:00:51.905Z,1015.56
2018-07-30T00:01:51.754Z,1015.55
2018-07-30T00:02:51.907Z,1015.52
2018-07-30T00:03:51.735Z,1015.49
2018-07-30T00:04:51.752Z,1015.52
2018-07-30T00:05:51.738Z,1015.5
2018-07-30T00:06:51.757Z,1015.51
2018-07-30T00:07:51.747Z,1015.5
2018-07-30T00:08:51.758Z,1015.5
2018-07-30T00:09:51.753Z,1015.51
2018-07-30T00:10:51.768Z,1015.46
2018-07-30T00:11:51.759Z,1015.49
2018-07-30T00:12:52.218Z,1015.47
2018-07-30T00:13:51.886Z,1015.45
2018-07-30T00:14:51.778Z,1015.51
2018-07-30T00:15:51.913Z,1015.52
2018-07-30T00:16:51.786Z,1015.47
2018-07-30T00:17:51.790Z,1015.46
2018-07-30T00:18:51.788Z,1015.46
2018-07-30T00:19:52.134Z,1015.47
2018-07-30T00:20:52.257Z,1015.46
2018-07-30T00:21:51.857Z,1015.48
2018-07-30T00:22:51.758Z,1015.53
2018-07-30T00:23:51.766Z,1015.51
2018-07-30T00:24:51.936Z,1015.48
2018-07-30T00:25:51.902Z,1015.49
2018-07-30T00:26:51.941Z,1015.49
2018-07-30T00:27:52.186Z,1015.51
2018-07-30T00:28:51.844Z,1015.52
2018-07-30T00:29:52.014Z,1015.53
2018-07-30T00:30:51.821Z,1015.54
2018-07-30T00:31:51.834Z,1015.57
2018-07-30T00:32:51.957Z,1015.56
2018-07-30T00:33:51.781Z,1015.56
2018-07-30T00:34:52.130Z,1015.55
2018-07-30T00:35:52.445Z,1015.56
2018-07-30T00:36:52.023Z,1015.55
2018-07-30T00:37:51.805Z,1015.55
2018-07-30T00:38:51.796Z,1015.55
2018-07-30T00:39:51.801Z,1015.58
2018-07-30T00:40:51.839Z,1015.57
2018-07-30T00:41:51.784Z,1015.6
2018-07-30T00:42:51.826Z,1015.61
2018-07-30T00:43:51.809Z,1015.61
2018-07-30T00:44:51.895Z,1015.61
2018-07-30T00:45:52.428Z,1015.65
2018-07-30T00:46:51.894Z,1015.66
2018-07-30T00:47:51.876Z,1015.61
2018-07-30T00:48:51.932Z,1015.64
2018-07-30T00:49:51.818Z,1015.64
2018-07-30T00:50:51.805Z,1015.7
2018-07-30T00:51:51.925Z,1015.67
2018-07-30T00:52:51.975Z,1015.66
2018-07-30T00:53:52.033Z,1015.69
2018-07-30T00:54:51.939Z,1015.68
2018-07-30T00:55:51.982Z,1015.7
2018-07-30T00:56:52.102Z,1015.71
2018-07-30T00:57:52.084Z,1015.71
2018-07-30T00:58:51.921Z,1015.72
2018-07-30T00:59:51.891Z,1015.72
2018-07-30T01:00:51.955Z,1015.72
2018-07-30T01:01:51.891Z,1015.71
2018-07-30T01:02:51.887Z,1015.7
2018-07-30T01:03:51.967Z,1015.73
2018-07-30T01:04:52.004Z,1015.72
2018-07-30T01:05:52.340Z,1015.77
2018-07-30T01:06:51.929Z,1015.74
2018-07-30T01:07:51.936Z,1015.74
2018-07-30T01:08:52.053Z,1015.78
2018-07-30T01:09:51.915Z,1015.76
2018-07-30T01:10:51.914Z,1015.73
2018-07-30T01:11:51.887Z,1015.76
2018-07-30T01:12:51.876Z,1015.77
2018-07-30T01:13:51.864Z,1015.78
2018-07-30T01:14:51.976Z,1015.74
2018-07-30T01:15:51.829Z,1015.73
2018-07-30T01:16:51.871Z,1015.75
2018-07-30T01:17:51.857Z,1015.78
2018-07-30T01:18:51.847Z,1015.78
2018-07-30T01:19:51.923Z,1015.84
2018-07-30T01:20:51.841Z,1015.79
2018-07-30T01:21:52.105Z,1015.82
2018-07-30T01:22:51.865Z,1015.81
2018-07-30T01:23:51.870Z,1015.8
2018-07-30T01:24:51.868Z,1015.83
2018-07-30T01:25:51.911Z,1015.82
2018-07-30T01:26:51.953Z,1015.82
2018-07-30T01:27:51.892Z,1015.86
2018-07-30T01:28:51.880Z,1015.86
2018-07-30T01:29:51.868Z,1015.86
2018-07-30T01:30:51.878Z,1015.89
2018-07-30T01:31:51.922Z,1015.9
2018-07-30T01:32:51.867Z,1015.91
2018-07-30T01:33:51.909Z,1015.92
2018-07-30T01:34:51.939Z,1015.96
2018-07-30T01:35:51.853Z,1015.96
2018-07-30T01:36:52.073Z,1016.04
2018-07-30T01:37:51.968Z,1016.02
2018-07-30T01:38:52.014Z,1016.03
2018-07-30T01:39:51.869Z,1016.05
2018-07-30T01:40:51.874Z,1016.07
2018-07-30T01:41:52.034Z,1016.12
2018-07-30T01:42:51.866Z,1016.12
2018-07-30T01:43:51.926Z,1016.09
2018-07-30T01:44:52.060Z,1016.08
2018-07-30T01:45:51.927Z,1016.12
2018-07-30T01:46:52.025Z,1016.09
2018-07-30T01:47:51.921Z,1016.11
2018-07-30T01:48:51.877Z,1016.12
2018-07-30T01:49:51.881Z,1016.11
2018-07-30T01:50:51.930Z,1016.12
2018-07-30T01:51:51.891Z,1016.1
2018-07-30T01:52:51.973Z,1016.12
2018-07-30T01:53:52.026Z,1016.12
2018-07-30T01:54:51.916Z,1016.08
2018-07-30T01:55:51.944Z,1016.1
2018-07-30T01:56:52.000Z,1016.12
2018-07-30T01:57:52.279Z,1016.17
2018-07-30T01:58:52.150Z,1016.16
2018-07-30T01:59:51.893Z,1016.18
2018-07-30T02:00:51.907Z,1016.19
2018-07-30T02:01:51.945Z,1016.21
2018-07-30T02:02:51.969Z,1016.21
2018-07-30T02:03:51.938Z,1016.2
2018-07-30T02:04:52.096Z,1016.19
2018-07-30T02:05:51.919Z,1016.2
2018-07-30T02:06:51.900Z,1016.18
2018-07-30T02:07:51.944Z,1016.18
2018-07-30T02:08:51.914Z,1016.21
2018-07-30T02:09:51.961Z,1016.22
2018-07-30T02:10:51.916Z,1016.22
2018-07-30T02:11:51.927Z,1016.21
2018-07-30T02:12:51.972Z,1016.26
2018-07-30T02:13:51.946Z,1016.23
2018-07-30T02:14:51.907Z,1016.25
2018-07-30T02:15:51.992Z,1016.25
2018-07-30T02:16:52.117Z,1016.25
2018-07-30T02:17:51.934Z,1016.23
2018-07-30T02:18:51.979Z,1016.21
2018-07-30T02:19:51.926Z,1016.24
2018-07-30T02:20:51.931Z,1016.27
2018-07-30T02:21:51.955Z,1016.24
2018-07-30T02:22:51.970Z,1016.3
2018-07-30T02:23:52.089Z,1016.3
2018-07-30T02:24:51.959Z,1016.3
2018-07-30T02:25:52.134Z,1016.29
2018-07-30T02:26:51.932Z,1016.29
2018-07-30T02:27:51.975Z,1016.32
2018-07-30T02:28:51.937Z,1016.31
2018-07-30T02:29:51.947Z,1016.3
2018-07-30T02:30:51.938Z,1016.34
2018-07-30T02:31:51.940Z,1016.35
2018-07-30T02:32:51.938Z,1016.33
2018-07-30T02:33:51.935Z,1016.39
2018-07-30T02:34:51.930Z,1016.38
2018-07-30T02:35:51.942Z,1016.37
2018-07-30T02:36:51.932Z,1016.36
2018-07-30T02:37:51.942Z,1016.38
2018-07-30T02:38:51.959Z,1016.38
2018-07-30T02:39:51.959Z,1016.41
2018-07-30T02:40:51.949Z,1016.41
2018-07-30T02:41:51.932Z,1016.44
2018-07-30T02:42:51.944Z,1016.45
2018-07-30T02:43:51.952Z,1016.43
2018-07-30T02:44:51.956Z,1016.43
2018-07-30T02:45:51.961Z,1016.41
2018-07-30T02:46:51.973Z,1016.42
2018-07-30T02:47:52.001Z,1016.43
2018-07-30T02:48:51.979Z,1016.45
2018-07-30T02:49:51.941Z,1016.45
2018-07-30T02:50:52.024Z,1016.44
2018-07-30T02:51:51.982Z,1016.45
2018-07-30T02:52:51.998Z,1016.46
2018-07-30T02:53:51.966Z,1016.44
2018-07-30T02:54:51.976Z,1016.48
2018-07-30T02:55:51.973Z,1016.44
2018-07-30T02:56:51.991Z,1016.49
2018-07-30T02:57:51.990Z,1016.49
2018-07-30T02:58:52.001Z,1016.46
2018-07-30T02:59:51.988Z,1016.45
2018-07-30T03:00:51.977Z,1016.46
2018-07-30T03:01:51.972Z,1016.48
2018-07-30T03:02:51.974Z,1016.48
2018-07-30T03:03:51.976Z,1016.48
2018-07-30T03:04:52.000Z,1016.48
2018-07-30T03:05:52.042Z,1016.49
2018-07-30T03:06:52.004Z,1016.52
2018-07-30T03:07:52.166Z,1016.48
2018-07-30T03:08:52.045Z,1016.5
2018-07-30T03:09:51.997Z,1016.51
2018-07-30T03:10:52.092Z,1016.49
2018-07-30T03:11:51.986Z,1016.51
2018-07-30T03:12:51.994Z,1016.5
2018-07-30T03:13:52.143Z,1016.56
2018-07-30T03:14:52.149Z,1016.55
2018-07-30T03:15:52.015Z,1016.58
2018-07-30T03:16:51.989Z,1016.61
2018-07-30T03:17:52.079Z,1016.62
2018-07-30T03:18:52.004Z,1016.63
2018-07-30T03:19:52.000Z,1016.68
2018-07-30T03:20:52.075Z,1016.69
2018-07-30T03:21:51.993Z,1016.72
2018-07-30T03:22:51.985Z,1016.71
2018-07-30T03:23:52.141Z,1016.72
2018-07-30T03:24:52.103Z,1016.74
2018-07-30T03:25:52.221Z,1016.75
2018-07-30T03:26:52.060Z,1016.73
2018-07-30T03:27:52.053Z,1016.74
2018-07-30T03:28:52.688Z,1016.8
2018-07-30T03:29:51.997Z,1016.82
2018-07-30T03:30:52.006Z,1016.84
2018-07-30T03:31:52.052Z,1016.88
2018-07-30T03:32:52.182Z,1016.88
2018-07-30T03:33:52.005Z,1016.88
2018-07-30T03:34:52.098Z,1016.91
2018-07-30T03:35:52.022Z,1016.9
2018-07-30T03:36:52.175Z,1016.89
2018-07-30T03:37:52.093Z,1016.88
2018-07-30T03:38:52.438Z,1016.86
2018-07-30T03:39:52.062Z,1016.83
2018-07-30T03:40:52.012Z,1016.85
2018-07-30T03:41:52.029Z,1016.79
2018-07-30T03:42:52.101Z,1016.79
2018-07-30T03:43:52.035Z,1016.8
2018-07-30T03:44:52.040Z,1016.89
2018-07-30T03:45:52.009Z,1016.86
2018-07-30T03:46:52.051Z,1016.9
2018-07-30T03:47:52.088Z,1016.94
2018-07-30T03:48:52.085Z,1016.92
2018-07-30T03:49:52.063Z,1016.92
2018-07-30T03:50:52.492Z,1016.93
2018-07-30T03:51:52.040Z,1016.89
2018-07-30T03:52:52.033Z,1016.92
2018-07-30T03:53:52.026Z,1016.91
2018-07-30T03:54:52.044Z,1016.87
2018-07-30T03:55:52.023Z,1016.9
2018-07-30T03:56:52.031Z,1016.89
2018-07-30T03:57:52.097Z,1016.89
2018-07-30T03:58:52.044Z,1016.89
2018-07-30T03:59:52.126Z,1016.89
2018-07-30T04:00:52.570Z,1016.89
2018-07-30T04:01:52.073Z,1016.92
2018-07-30T04:02:52.056Z,1016.94
2018-07-30T04:03:52.078Z,1016.93
2018-07-30T04:04:52.048Z,1016.9
2018-07-30T04:05:52.255Z,1016.9
2018-07-30T04:06:52.065Z,1016.86
2018-07-30T04:07:52.220Z,1016.89
2018-07-30T04:08:52.156Z,1016.89
2018-07-30T04:09:52.275Z,1016.91
2018-07-30T04:10:52.567Z,1016.91
2018-07-30T04:11:52.076Z,1016.88
2018-07-30T04:12:52.115Z,1016.95
2018-07-30T04:13:52.075Z,1016.89
2018-07-30T04:14:52.083Z,1016.92
2018-07-30T04:15:52.081Z,1016.92
2018-07-30T04:16:52.467Z,1016.88
2018-07-30T04:17:52.057Z,1016.88
2018-07-30T04:18:52.135Z,1016.88
2018-07-30T04:19:52.084Z,1016.87
2018-07-30T04:20:52.256Z,1016.83
2018-07-30T04:21:52.066Z,1016.82
2018-07-30T04:22:52.083Z,1016.81
2018-07-30T04:23:52.174Z,1016.78
2018-07-30T04:24:52.074Z,1016.78
2018-07-30T04:25:52.074Z,1016.81
2018-07-30T04:26:52.072Z,1016.76
2018-07-30T04:27:52.127Z,1016.73
2018-07-30T04:28:52.093Z,1016.73
2018-07-30T04:29:52.426Z,1016.76
2018-07-30T04:30:52.415Z,1016.76
2018-07-30T04:31:52.129Z,1016.79
2018-07-30T04:32:52.123Z,1016.82
2018-07-30T04:33:52.212Z,1016.83
2018-07-30T04:34:52.239Z,1016.86
2018-07-30T04:35:52.129Z,1016.8
2018-07-30T04:36:52.083Z,1016.83
2018-07-30T04:37:52.502Z,1016.82
2018-07-30T04:38:52.193Z,1016.81
2018-07-30T04:39:52.212Z,1016.82
2018-07-30T04:40:52.203Z,1016.86
2018-07-30T04:41:52.192Z,1016.87
2018-07-30T04:42:52.150Z,1016.88
2018-07-30T04:43:52.304Z,1016.83
2018-07-30T04:44:52.101Z,1016.83
2018-07-30T04:45:52.130Z,1016.87
2018-07-30T04:46:52.081Z,1016.86
2018-07-30T04:47:52.336Z,1016.85
2018-07-30T04:48:52.235Z,1016.87
2018-07-30T04:49:52.577Z,1016.9
2018-07-30T04:50:52.280Z,1016.9
2018-07-30T04:51:52.233Z,1016.88
2018-07-30T04:52:52.108Z,1016.94
2018-07-30T04:53:52.101Z,1016.92
2018-07-30T04:54:52.164Z,1016.95
2018-07-30T04:55:52.307Z,1016.98
2018-07-30T04:56:52.194Z,1016.99
2018-07-30T04:57:52.209Z,1016.97
2018-07-30T04:58:52.218Z,1017.01
2018-07-30T04:59:52.103Z,1017.03
2018-07-30T05:00:52.368Z,1017.06
2018-07-30T05:01:52.150Z,1017.02
2018-07-30T05:02:52.090Z,1017.05
2018-07-30T05:03:52.306Z,1017.03
2018-07-30T05:04:52.123Z,1017.07
2018-07-30T05:05:52.102Z,1017.07
2018-07-30T05:06:52.110Z,1017.05
2018-07-30T05:07:52.118Z,1017.06
2018-07-30T05:08:52.124Z,1017.08
2018-07-30T05:09:52.135Z,1017.07
2018-07-30T05:10:52.116Z,1017.08
2018-07-30T05:11:52.130Z,1017.04
2018-07-30T05:12:52.151Z,1017.07
2018-07-30T05:13:52.140Z,1017.04
2018-07-30T05:14:52.191Z,1017.05
2018-07-30T05:15:52.172Z,1017.03
2018-07-30T05:16:52.329Z,1017.03
2018-07-30T05:17:52.223Z,1016.99
2018-07-30T05:18:52.160Z,1017.02
2018-07-30T05:19:52.120Z,1017.02
2018-07-30T05:20:52.148Z,1017.04
2018-07-30T05:21:52.328Z,1017.04
2018-07-30T05:22:52.211Z,1016.99
2018-07-30T05:23:52.231Z,1017.02
2018-07-30T05:24:52.179Z,1017.01
2018-07-30T05:25:52.147Z,1017.01
2018-07-30T05:26:52.191Z,1016.98
2018-07-30T05:27:52.142Z,1017.01
2018-07-30T05:28:52.134Z,1017.01
2018-07-30T05:29:52.273Z,1017.03
2018-07-30T05:30:52.155Z,1016.96
2018-07-30T05:31:52.223Z,1017.05
2018-07-30T05:32:52.130Z,1016.95
2018-07-30T05:33:52.290Z,1016.96
2018-07-30T05:34:52.201Z,1016.99
2018-07-30T05:35:52.890Z,1016.97
2018-07-30T05:36:56.097Z,1017.01
2018-07-30T05:37:52.172Z,1017.01
2018-07-30T05:38:52.209Z,1017.05
2018-07-30T05:39:52.313Z,1017.04
2018-07-30T05:40:52.181Z,1017.02
2018-07-30T05:41:52.300Z,1017.03
2018-07-30T05:42:52.430Z,1017.03
2018-07-30T05:43:52.200Z,1017.02
2018-07-30T05:44:52.339Z,1017.02
2018-07-30T05:45:52.638Z,1016.98
2018-07-30T05:46:52.203Z,1017
2018-07-30T05:47:52.180Z,1016.97
2018-07-30T05:48:52.161Z,1017
2018-07-30T05:49:52.333Z,1017.02
2018-07-30T05:50:52.169Z,1017.02
2018-07-30T05:51:52.378Z,1017.03
2018-07-30T05:52:52.172Z,1017.06
2018-07-30T05:53:52.195Z,1017.08
2018-07-30T05:54:52.239Z,1017.09
2018-07-30T05:55:52.627Z,1017.07
2018-07-30T05:56:52.389Z,1017.11
2018-07-30T05:57:52.234Z,1017.1
2018-07-30T05:58:52.265Z,1017.15
2018-07-30T05:59:52.358Z,1017.14
2018-07-30T06:00:52.314Z,1017.14
2018-07-30T06:01:52.244Z,1017.18
2018-07-30T06:02:52.188Z,1017.17
2018-07-30T06:03:52.193Z,1017.2
2018-07-30T06:04:52.207Z,1017.21
2018-07-30T06:05:52.705Z,1017.23
2018-07-30T06:06:52.344Z,1017.25
2018-07-30T06:07:52.224Z,1017.25
2018-07-30T06:08:52.380Z,1017.21
2018-07-30T06:09:52.211Z,1017.24
2018-07-30T06:10:52.302Z,1017.23
2018-07-30T06:11:52.356Z,1017.23
2018-07-30T06:12:52.401Z,1017.25
2018-07-30T06:13:52.461Z,1017.25
2018-07-30T06:14:52.205Z,1017.21
2018-07-30T06:15:52.694Z,1017.21
2018-07-30T06:16:52.221Z,1017.24
2018-07-30T06:17:52.223Z,1017.23
2018-07-30T06:18:52.260Z,1017.26
2018-07-30T06:19:52.232Z,1017.25
2018-07-30T06:20:52.512Z,1017.28
2018-07-30T06:21:52.245Z,1017.28
2018-07-30T06:22:52.213Z,1017.27
2018-07-30T06:23:52.246Z,1017.3
2018-07-30T06:24:52.215Z,1017.32
2018-07-30T06:25:52.207Z,1017.35
2018-07-30T06:26:52.216Z,1017.38
2018-07-30T06:27:52.248Z,1017.36
2018-07-30T06:28:52.257Z,1017.4
2018-07-30T06:29:52.283Z,1017.43
2018-07-30T06:30:52.489Z,1017.42
2018-07-30T06:31:52.350Z,1017.43
2018-07-30T06:32:52.234Z,1017.44
2018-07-30T06:33:52.244Z,1017.45
2018-07-30T06:34:52.318Z,1017.51
2018-07-30T06:35:52.225Z,1017.49
2018-07-30T06:36:52.240Z,1017.49
2018-07-30T06:37:52.229Z,1017.48
2018-07-30T06:38:52.276Z,1017.49
2018-07-30T06:39:52.262Z,1017.5
2018-07-30T06:40:52.236Z,1017.49
2018-07-30T06:41:52.367Z,1017.51
2018-07-30T06:42:52.569Z,1017.49
2018-07-30T06:43:52.235Z,1017.51
2018-07-30T06:44:53.649Z,1017.53
2018-07-30T06:45:52.476Z,1017.5
2018-07-30T06:46:52.243Z,1017.51
2018-07-30T06:47:52.579Z,1017.54
2018-07-30T06:48:52.272Z,1017.55
2018-07-30T06:49:52.300Z,1017.58
2018-07-30T06:50:52.263Z,1017.56
2018-07-30T06:51:52.304Z,1017.61
2018-07-30T06:52:52.305Z,1017.59
2018-07-30T06:53:52.256Z,1017.63
2018-07-30T06:54:52.332Z,1017.64
2018-07-30T06:55:52.604Z,1017.63
2018-07-30T06:56:52.291Z,1017.65
2018-07-30T06:57:52.273Z,1017.67
2018-07-30T06:58:52.325Z,1017.62
2018-07-30T06:59:52.262Z,1017.63
2018-07-30T07:00:52.282Z,1017.62
2018-07-30T07:01:52.404Z,1017.62
2018-07-30T07:02:52.312Z,1017.63
2018-07-30T07:03:52.290Z,1017.65
2018-07-30T07:04:52.302Z,1017.62
2018-07-30T07:05:52.578Z,1017.62
2018-07-30T07:06:52.450Z,1017.68
2018-07-30T07:07:52.264Z,1017.69
2018-07-30T07:08:52.272Z,1017.67
2018-07-30T07:09:52.466Z,1017.7
2018-07-30T07:10:52.362Z,1017.68
2018-07-30T07:11:52.403Z,1017.68
2018-07-30T07:12:52.353Z,1017.7
2018-07-30T07:13:52.316Z,1017.71
2018-07-30T07:14:52.434Z,1017.67
2018-07-30T07:15:52.271Z,1017.7
2018-07-30T07:16:52.531Z,1017.66
2018-07-30T07:17:52.344Z,1017.67
2018-07-30T07:18:52.382Z,1017.69
2018-07-30T07:19:52.273Z,1017.7
2018-07-30T07:20:52.321Z,1017.7
2018-07-30T07:21:52.610Z,1017.67
2018-07-30T07:22:52.370Z,1017.68
2018-07-30T07:23:52.381Z,1017.65
2018-07-30T07:24:52.291Z,1017.67
2018-07-30T07:25:52.478Z,1017.59
2018-07-30T07:26:52.373Z,1017.63
2018-07-30T07:27:52.410Z,1017.64
2018-07-30T07:28:52.289Z,1017.61
2018-07-30T07:29:52.302Z,1017.62
2018-07-30T07:30:52.334Z,1017.61
2018-07-30T07:31:52.336Z,1017.6
2018-07-30T07:32:52.371Z,1017.55
2018-07-30T07:33:52.348Z,1017.58
2018-07-30T07:34:52.789Z,1017.51
2018-07-30T07:35:52.323Z,1017.52
2018-07-30T07:36:52.820Z,1017.52
2018-07-30T07:37:52.320Z,1017.5
2018-07-30T07:38:52.346Z,1017.5
2018-07-30T07:39:52.335Z,1017.52
2018-07-30T07:40:52.350Z,1017.5
2018-07-30T07:41:52.339Z,1017.48
2018-07-30T07:42:52.345Z,1017.47
2018-07-30T07:43:52.789Z,1017.49
2018-07-30T07:44:52.425Z,1017.44
2018-07-30T07:45:52.336Z,1017.46
2018-07-30T07:46:52.322Z,1017.46
2018-07-30T07:47:52.607Z,1017.47
2018-07-30T07:48:52.368Z,1017.49
2018-07-30T07:49:52.341Z,1017.46
2018-07-30T07:50:53.099Z,1017.45
2018-07-30T07:51:52.432Z,1017.49
2018-07-30T07:52:52.334Z,1017.5
2018-07-30T07:53:52.318Z,1017.48
2018-07-30T07:54:52.334Z,1017.47
2018-07-30T07:55:52.343Z,1017.46
2018-07-30T07:56:52.331Z,1017.48
2018-07-30T07:57:52.333Z,1017.48
2018-07-30T07:58:52.373Z,1017.45
2018-07-30T07:59:52.339Z,1017.45
2018-07-30T08:00:52.354Z,1017.46
2018-07-30T08:01:52.486Z,1017.43
2018-07-30T08:02:52.349Z,1017.45
2018-07-30T08:03:52.556Z,1017.42
2018-07-30T08:04:52.351Z,1017.41
2018-07-30T08:05:52.353Z,1017.43
2018-07-30T08:06:52.440Z,1017.41
2018-07-30T08:07:52.359Z,1017.44
2018-07-30T08:08:57.979Z,1017.43
2018-07-30T08:09:52.600Z,1017.45
2018-07-30T08:10:52.472Z,1017.42
2018-07-30T08:11:52.363Z,1017.44
2018-07-30T08:12:52.926Z,1017.4
2018-07-30T08:13:52.428Z,1017.42
2018-07-30T08:14:52.388Z,1017.42
2018-07-30T08:15:52.368Z,1017.43
2018-07-30T08:16:52.654Z,1017.43
2018-07-30T08:17:52.391Z,1017.43
2018-07-30T08:18:52.368Z,1017.45
2018-07-30T08:19:52.403Z,1017.44
2018-07-30T08:20:52.444Z,1017.42
2018-07-30T08:21:52.417Z,1017.42
2018-07-30T08:22:52.479Z,1017.45
2018-07-30T08:23:52.471Z,1017.47
2018-07-30T08:24:52.489Z,1017.47
2018-07-30T08:25:52.403Z,1017.42
2018-07-30T08:26:52.369Z,1017.45
2018-07-30T08:27:52.346Z,1017.44
2018-07-30T08:28:52.380Z,1017.43
2018-07-30T08:29:52.665Z,1017.43
2018-07-30T08:30:52.376Z,1017.37
2018-07-30T08:31:52.384Z,1017.41
2018-07-30T08:32:52.717Z,1017.42
2018-07-30T08:33:52.559Z,1017.39
2018-07-30T08:34:52.673Z,1017.41
2018-07-30T08:35:52.497Z,1017.39
2018-07-30T08:36:52.388Z,1017.41
2018-07-30T08:37:52.425Z,1017.42
2018-07-30T08:38:52.397Z,1017.39
2018-07-30T08:39:52.599Z,1017.42
2018-07-30T08:40:52.515Z,1017.45
2018-07-30T08:41:52.462Z,1017.5
2018-07-30T08:42:52.499Z,1017.51
2018-07-30T08:43:52.618Z,1017.51
2018-07-30T08:44:52.630Z,1017.5
2018-07-30T08:45:52.499Z,1017.51
2018-07-30T08:46:52.646Z,1017.48
2018-07-30T08:47:52.645Z,1017.48
2018-07-30T08:48:52.910Z,1017.43
2018-07-30T08:49:52.419Z,1017.5
2018-07-30T08:50:52.532Z,1017.47
2018-07-30T08:51:52.531Z,1017.49
2018-07-30T08:52:52.706Z,1017.47
2018-07-30T08:53:52.590Z,1017.46
2018-07-30T08:54:52.600Z,1017.48
2018-07-30T08:55:52.417Z,1017.49
2018-07-30T08:56:52.650Z,1017.48
2018-07-30T08:57:52.408Z,1017.48
2018-07-30T08:58:52.529Z,1017.44
2018-07-30T08:59:52.408Z,1017.45
2018-07-30T09:00:52.445Z,1017.44
2018-07-30T09:01:52.438Z,1017.45
2018-07-30T09:02:52.433Z,1017.48
2018-07-30T09:03:52.415Z,1017.44
2018-07-30T09:04:52.411Z,1017.45
2018-07-30T09:05:52.424Z,1017.48
2018-07-30T09:06:52.470Z,1017.48
2018-07-30T09:07:52.440Z,1017.45
2018-07-30T09:08:52.596Z,1017.45
2018-07-30T09:09:52.446Z,1017.47
2018-07-30T09:10:52.421Z,1017.44
2018-07-30T09:11:52.418Z,1017.41
2018-07-30T09:12:53.135Z,1017.43
2018-07-30T09:13:52.520Z,1017.41
2018-07-30T09:14:52.566Z,1017.4
2018-07-30T09:15:52.468Z,1017.39
2018-07-30T09:16:52.704Z,1017.44
2018-07-30T09:17:52.590Z,1017.39
2018-07-30T09:18:52.656Z,1017.32
2018-07-30T09:19:52.446Z,1017.35
2018-07-30T09:20:52.444Z,1017.38
2018-07-30T09:21:52.433Z,1017.37
2018-07-30T09:22:52.484Z,1017.36
2018-07-30T09:23:52.547Z,1017.34
2018-07-30T09:24:52.519Z,1017.31
2018-07-30T09:25:52.584Z,1017.31
2018-07-30T09:26:52.517Z,1017.27
2018-07-30T09:27:52.573Z,1017.24
2018-07-30T09:28:52.523Z,1017.21
2018-07-30T09:29:52.670Z,1017.2
2018-07-30T09:30:52.641Z,1017.17
2018-07-30T09:31:52.493Z,1017.2
2018-07-30T09:32:52.940Z,1017.18
2018-07-30T09:33:52.488Z,1017.16
2018-07-30T09:34:52.473Z,1017.18
2018-07-30T09:35:52.520Z,1017.14
2018-07-30T09:36:52.496Z,1017.15
2018-07-30T09:37:52.492Z,1017.14
2018-07-30T09:38:52.842Z,1017.15
2018-07-30T09:39:52.595Z,1017.12
2018-07-30T09:40:52.464Z,1017.12
2018-07-30T09:41:52.506Z,1017.1
2018-07-30T09:42:52.496Z,1017.09
2018-07-30T09:43:52.621Z,1017.12
2018-07-30T09:44:52.578Z,1017.08
2018-07-30T09:45:52.514Z,1017.13
2018-07-30T09:46:52.480Z,1017.09
2018-07-30T09:47:52.507Z,1017.12
2018-07-30T09:48:52.764Z,1017.14
2018-07-30T09:49:52.543Z,1017.13
2018-07-30T09:50:52.491Z,1017.12
2018-07-30T09:51:52.487Z,1017.12
2018-07-30T09:52:52.932Z,1017.15
2018-07-30T09:53:52.583Z,1017.14
2018-07-30T09:54:52.812Z,1017.1
2018-07-30T09:55:52.536Z,1017.13
2018-07-30T09:56:52.506Z,1017.1
2018-07-30T09:57:52.479Z,1017.13
2018-07-30T09:58:52.537Z,1017.07
2018-07-30T09:59:52.489Z,1017.09
2018-07-30T10:00:52.689Z,1017.09
2018-07-30T10:01:52.610Z,1017.06
2018-07-30T10:02:52.498Z,1017.08
2018-07-30T10:03:52.512Z,1017.04
2018-07-30T10:04:52.490Z,1017.02
2018-07-30T10:05:52.504Z,1016.98
2018-07-30T10:06:52.536Z,1016.97
2018-07-30T10:07:52.512Z,1016.95
2018-07-30T10:08:52.505Z,1016.93
2018-07-30T10:09:52.510Z,1016.89
2018-07-30T10:10:52.510Z,1016.87
2018-07-30T10:11:52.561Z,1016.88
2018-07-30T10:12:52.524Z,1016.85
2018-07-30T10:13:52.539Z,1016.86
2018-07-30T10:14:52.633Z,1016.83
2018-07-30T10:15:52.530Z,1016.82
2018-07-30T10:16:52.503Z,1016.82
2018-07-30T10:17:52.595Z,1016.81
2018-07-30T10:18:52.538Z,1016.79
2018-07-30T10:19:52.532Z,1016.79
2018-07-30T10:20:52.596Z,1016.78
2018-07-30T10:21:52.544Z,1016.79
2018-07-30T10:22:52.571Z,1016.83
2018-07-30T10:23:52.538Z,1016.78
2018-07-30T10:24:52.703Z,1016.8
2018-07-30T10:25:52.524Z,1016.81
2018-07-30T10:26:52.764Z,1016.82
2018-07-30T10:27:52.652Z,1016.79
2018-07-30T10:28:52.742Z,1016.77
2018-07-30T10:29:52.740Z,1016.78
2018-07-30T10:30:53.068Z,1016.77
2018-07-30T10:31:52.849Z,1016.76
2018-07-30T10:32:52.833Z,1016.77
2018-07-30T10:33:52.749Z,1016.74
2018-07-30T10:34:52.805Z,1016.71
2018-07-30T10:35:53.148Z,1016.71
2018-07-30T10:36:52.694Z,1016.77
2018-07-30T10:37:52.713Z,1016.69
2018-07-30T10:38:53.657Z,1016.7
2018-07-30T10:39:52.838Z,1016.71
2018-07-30T10:40:52.544Z,1016.7
2018-07-30T10:41:53.213Z,1016.69
2018-07-30T10:42:52.737Z,1016.64
2018-07-30T10:43:52.563Z,1016.63
2018-07-30T10:44:52.593Z,1016.66
2018-07-30T10:45:52.636Z,1016.63
2018-07-30T10:46:52.643Z,1016.65
2018-07-30T10:47:52.663Z,1016.69
2018-07-30T10:48:52.660Z,1016.64
2018-07-30T10:49:52.578Z,1016.68
2018-07-30T10:50:52.674Z,1016.67
2018-07-30T10:51:52.642Z,1016.63
2018-07-30T10:52:52.619Z,1016.64
2018-07-30T10:53:52.687Z,1016.64
2018-07-30T10:54:52.753Z,1016.65
2018-07-30T10:55:53.022Z,1016.65
2018-07-30T10:56:52.619Z,1016.58
2018-07-30T10:57:52.630Z,1016.57
2018-07-30T10:58:52.600Z,1016.56
2018-07-30T10:59:52.553Z,1016.52
2018-07-30T11:00:52.753Z,1016.53
2018-07-30T11:01:52.618Z,1016.53
2018-07-30T11:02:52.703Z,1016.49
2018-07-30T11:03:52.576Z,1016.54
2018-07-30T11:04:52.979Z,1016.54
2018-07-30T11:05:52.642Z,1016.54
2018-07-30T11:06:52.668Z,1016.51
2018-07-30T11:07:53.079Z,1016.5
2018-07-30T11:08:52.582Z,1016.49
2018-07-30T11:09:52.628Z,1016.5
2018-07-30T11:10:52.725Z,1016.49
2018-07-30T11:11:52.921Z,1016.47
2018-07-30T11:12:52.819Z,1016.45
2018-07-30T11:13:52.934Z,1016.41
2018-07-30T11:14:53.016Z,1016.45
2018-07-30T11:15:52.597Z,1016.44
2018-07-30T11:16:52.744Z,1016.44
2018-07-30T11:17:52.657Z,1016.44
2018-07-30T11:18:52.684Z,1016.39
2018-07-30T11:19:53.729Z,1016.42
2018-07-30T11:20:52.777Z,1016.42
2018-07-30T11:21:52.580Z,1016.42
2018-07-30T11:22:52.688Z,1016.38
2018-07-30T11:23:52.693Z,1016.42
2018-07-30T11:24:52.603Z,1016.42
2018-07-30T11:25:52.618Z,1016.4
2018-07-30T11:26:52.613Z,1016.38
2018-07-30T11:27:52.663Z,1016.41
2018-07-30T11:28:52.639Z,1016.4
2018-07-30T11:29:52.624Z,1016.32
2018-07-30T11:30:52.744Z,1016.34
2018-07-30T11:31:52.600Z,1016.34
2018-07-30T11:32:52.604Z,1016.32
2018-07-30T11:33:52.780Z,1016.32
2018-07-30T11:34:52.609Z,1016.28
2018-07-30T11:35:52.687Z,1016.25
2018-07-30T11:36:52.597Z,1016.23
2018-07-30T11:37:52.899Z,1016.22
2018-07-30T11:38:52.653Z,1016.22
2018-07-30T11:39:52.682Z,1016.17
2018-07-30T11:40:52.660Z,1016.21
2018-07-30T11:41:52.706Z,1016.18
2018-07-30T11:42:52.808Z,1016.2
2018-07-30T11:43:52.647Z,1016.13
2018-07-30T11:44:52.626Z,1016.08
2018-07-30T11:45:52.722Z,1016.1
2018-07-30T11:46:52.687Z,1016.08
2018-07-30T11:47:52.740Z,1016.09
2018-07-30T11:48:52.767Z,1016.12
2018-07-30T11:49:52.825Z,1016.07
2018-07-30T11:50:52.639Z,1016
2018-07-30T11:51:52.899Z,1016.01
2018-07-30T11:52:52.695Z,1016
2018-07-30T11:53:53.144Z,1016.03
2018-07-30T11:54:52.653Z,1016.05
2018-07-30T11:55:52.662Z,1015.99
2018-07-30T11:56:52.638Z,1015.96
2018-07-30T11:57:52.644Z,1015.98
2018-07-30T11:58:52.638Z,1015.95
2018-07-30T11:59:52.698Z,1015.97
2018-07-30T12:00:52.802Z,1015.96
2018-07-30T12:01:52.851Z,1015.94
2018-07-30T12:02:52.723Z,1015.94
2018-07-30T12:03:52.763Z,1015.91
2018-07-30T12:04:52.789Z,1015.9
2018-07-30T12:05:52.706Z,1015.93
2018-07-30T12:06:52.645Z,1015.92
2018-07-30T12:07:52.672Z,1015.89
2018-07-30T12:08:52.888Z,1015.86